sensor_id;sensor_type;location;lat;lon;timestamp;temperature;humidity
18177;DHT22;9213;50.858;3.964;2023-06-22T00:02:17;24.80;45.40
18177;DHT22;9213;50.858;3.964;2023-06-22T00:04:44;24.80;45.50
18177;DHT22;9213;50.858;3.964;2023-06-22T00:07:11;24.70;45.70
18177;DHT22;9213;50.858;3.964;2023-06-22T00:09:39;24.70;45.90
18177;DHT22;9213;50.858;3.964;2023-06-22T00:12:07;24.70;46.00
18177;DHT22;9213;50.858;3.964;2023-06-22T00:14:34;24.60;45.80
18177;DHT22;9213;50.858;3.964;2023-06-22T00:17:00;24.60;46.10
18177;DHT22;9213;50.858;3.964;2023-06-22T00:19:27;24.60;46.40
18177;DHT22;9213;50.858;3.964;2023-06-22T00:21:54;24.60;46.50
18177;DHT22;9213;50.858;3.964;2023-06-22T00:24:25;24.60;46.50
18177;DHT22;9213;50.858;3.964;2023-06-22T00:26:54;24.60;46.50
18177;DHT22;9213;50.858;3.964;2023-06-22T00:29:20;24.60;46.60
18177;DHT22;9213;50.858;3.964;2023-06-22T00:31:47;24.50;46.80
18177;DHT22;9213;50.858;3.964;2023-06-22T00:34:14;24.50;46.80
18177;DHT22;9213;50.858;3.964;2023-06-22T00:36:42;24.40;46.90
18177;DHT22;9213;50.858;3.964;2023-06-22T00:39:09;24.40;46.80
18177;DHT22;9213;50.858;3.964;2023-06-22T00:41:36;24.40;46.90
18177;DHT22;9213;50.858;3.964;2023-06-22T00:44:04;24.30;47.00
18177;DHT22;9213;50.858;3.964;2023-06-22T00:46:32;24.30;47.40
18177;DHT22;9213;50.858;3.964;2023-06-22T00:48:59;24.20;47.30
18177;DHT22;9213;50.858;3.964;2023-06-22T00:51:26;24.20;47.40
18177;DHT22;9213;50.858;3.964;2023-06-22T00:53:54;24.20;47.40
18177;DHT22;9213;50.858;3.964;2023-06-22T00:56:22;24.10;47.60
18177;DHT22;9213;50.858;3.964;2023-06-22T00:58:51;24.10;47.90
18177;DHT22;9213;50.858;3.964;2023-06-22T01:01:20;24.10;48.00
18177;DHT22;9213;50.858;3.964;2023-06-22T01:03:49;24.10;47.60
18177;DHT22;9213;50.858;3.964;2023-06-22T01:06:21;24.00;47.30
18177;DHT22;9213;50.858;3.964;2023-06-22T01:08:57;24.00;47.60
18177;DHT22;9213;50.858;3.964;2023-06-22T01:11:32;24.00;47.10
18177;DHT22;9213;50.858;3.964;2023-06-22T01:14:06;23.90;47.80
18177;DHT22;9213;50.858;3.964;2023-06-22T01:16:39;23.90;47.60
18177;DHT22;9213;50.858;3.964;2023-06-22T01:19:14;23.90;47.50
18177;DHT22;9213;50.858;3.964;2023-06-22T01:21:45;23.90;47.50
18177;DHT22;9213;50.858;3.964;2023-06-22T01:24:18;23.90;47.50
18177;DHT22;9213;50.858;3.964;2023-06-22T01:26:57;23.90;47.60
18177;DHT22;9213;50.858;3.964;2023-06-22T01:29:28;23.90;47.70
18177;DHT22;9213;50.858;3.964;2023-06-22T01:31:56;23.80;47.70
18177;DHT22;9213;50.858;3.964;2023-06-22T01:34:24;23.80;47.90
18177;DHT22;9213;50.858;3.964;2023-06-22T01:36:51;23.70;48.00
18177;DHT22;9213;50.858;3.964;2023-06-22T01:39:19;23.70;48.20
18177;DHT22;9213;50.858;3.964;2023-06-22T01:41:48;23.70;48.40
18177;DHT22;9213;50.858;3.964;2023-06-22T01:44:15;23.70;48.50
18177;DHT22;9213;50.858;3.964;2023-06-22T01:46:44;23.60;48.60
18177;DHT22;9213;50.858;3.964;2023-06-22T01:49:12;23.60;48.70
18177;DHT22;9213;50.858;3.964;2023-06-22T01:51:39;23.60;48.90
18177;DHT22;9213;50.858;3.964;2023-06-22T01:54:06;23.50;48.90
18177;DHT22;9213;50.858;3.964;2023-06-22T01:56:34;23.50;49.00
18177;DHT22;9213;50.858;3.964;2023-06-22T01:59:08;23.40;49.00
18177;DHT22;9213;50.858;3.964;2023-06-22T02:01:41;23.40;49.20
18177;DHT22;9213;50.858;3.964;2023-06-22T02:04:14;23.40;49.10
18177;DHT22;9213;50.858;3.964;2023-06-22T02:06:45;23.30;49.30
18177;DHT22;9213;50.858;3.964;2023-06-22T02:09:16;23.30;49.30
18177;DHT22;9213;50.858;3.964;2023-06-22T02:11:45;23.30;49.40
18177;DHT22;9213;50.858;3.964;2023-06-22T02:14:15;23.20;49.30
18177;DHT22;9213;50.858;3.964;2023-06-22T02:16:42;23.20;49.30
18177;DHT22;9213;50.858;3.964;2023-06-22T02:19:10;23.10;49.50
18177;DHT22;9213;50.858;3.964;2023-06-22T02:21:37;23.10;49.60
18177;DHT22;9213;50.858;3.964;2023-06-22T02:24:04;23.10;49.70
18177;DHT22;9213;50.858;3.964;2023-06-22T02:26:32;23.00;49.70
18177;DHT22;9213;50.858;3.964;2023-06-22T02:29:00;23.00;49.80
18177;DHT22;9213;50.858;3.964;2023-06-22T02:31:27;23.00;49.90
18177;DHT22;9213;50.858;3.964;2023-06-22T02:33:56;23.00;50.10
18177;DHT22;9213;50.858;3.964;2023-06-22T02:36:24;23.00;50.20
18177;DHT22;9213;50.858;3.964;2023-06-22T02:38:52;22.90;50.20
18177;DHT22;9213;50.858;3.964;2023-06-22T02:41:19;22.90;50.30
18177;DHT22;9213;50.858;3.964;2023-06-22T02:43:47;22.90;50.30
18177;DHT22;9213;50.858;3.964;2023-06-22T02:46:14;22.90;50.20
18177;DHT22;9213;50.858;3.964;2023-06-22T02:48:41;22.90;50.40
18177;DHT22;9213;50.858;3.964;2023-06-22T02:51:08;22.80;50.50
18177;DHT22;9213;50.858;3.964;2023-06-22T02:53:36;22.80;50.60
18177;DHT22;9213;50.858;3.964;2023-06-22T02:56:04;22.80;50.80
18177;DHT22;9213;50.858;3.964;2023-06-22T02:58:31;22.70;50.90
18177;DHT22;9213;50.858;3.964;2023-06-22T03:01:05;22.70;51.20
18177;DHT22;9213;50.858;3.964;2023-06-22T03:03:32;22.70;51.30
18177;DHT22;9213;50.858;3.964;2023-06-22T03:05:59;22.70;51.30
18177;DHT22;9213;50.858;3.964;2023-06-22T03:08:27;22.60;51.20
18177;DHT22;9213;50.858;3.964;2023-06-22T03:10:56;22.60;51.30
18177;DHT22;9213;50.858;3.964;2023-06-22T03:13:23;22.60;51.60
18177;DHT22;9213;50.858;3.964;2023-06-22T03:15:50;22.60;51.60
18177;DHT22;9213;50.858;3.964;2023-06-22T03:18:17;22.60;51.70
18177;DHT22;9213;50.858;3.964;2023-06-22T03:20:43;22.60;51.70
18177;DHT22;9213;50.858;3.964;2023-06-22T03:23:10;22.50;51.80
18177;DHT22;9213;50.858;3.964;2023-06-22T03:25:37;22.50;51.90
18177;DHT22;9213;50.858;3.964;2023-06-22T03:28:05;22.50;52.00
18177;DHT22;9213;50.858;3.964;2023-06-22T03:30:32;22.50;52.20
18177;DHT22;9213;50.858;3.964;2023-06-22T03:32:59;22.50;52.20
18177;DHT22;9213;50.858;3.964;2023-06-22T03:35:26;22.40;52.30
18177;DHT22;9213;50.858;3.964;2023-06-22T03:37:53;22.50;52.30
18177;DHT22;9213;50.858;3.964;2023-06-22T03:40:20;22.40;52.20
18177;DHT22;9213;50.858;3.964;2023-06-22T03:42:47;22.40;52.30
18177;DHT22;9213;50.858;3.964;2023-06-22T03:45:16;22.50;52.50
18177;DHT22;9213;50.858;3.964;2023-06-22T03:47:43;22.40;52.40
18177;DHT22;9213;50.858;3.964;2023-06-22T03:50:10;22.50;52.40
18177;DHT22;9213;50.858;3.964;2023-06-22T03:52:37;22.40;52.00
18177;DHT22;9213;50.858;3.964;2023-06-22T03:55:05;22.50;52.10
18177;DHT22;9213;50.858;3.964;2023-06-22T03:57:32;22.50;52.00
18177;DHT22;9213;50.858;3.964;2023-06-22T03:59:59;22.50;52.00
18177;DHT22;9213;50.858;3.964;2023-06-22T04:02:27;22.50;52.00
18177;DHT22;9213;50.858;3.964;2023-06-22T04:04:54;22.50;52.00
18177;DHT22;9213;50.858;3.964;2023-06-22T04:07:21;22.50;51.70
18177;DHT22;9213;50.858;3.964;2023-06-22T04:09:48;22.50;51.90
18177;DHT22;9213;50.858;3.964;2023-06-22T04:12:15;22.50;51.80
18177;DHT22;9213;50.858;3.964;2023-06-22T04:14:42;22.50;51.80
18177;DHT22;9213;50.858;3.964;2023-06-22T04:17:09;22.50;52.50
18177;DHT22;9213;50.858;3.964;2023-06-22T04:19:37;22.60;51.60
18177;DHT22;9213;50.858;3.964;2023-06-22T04:22:04;22.60;51.70
18177;DHT22;9213;50.858;3.964;2023-06-22T04:24:32;22.60;51.50
18177;DHT22;9213;50.858;3.964;2023-06-22T04:26:59;22.60;51.50
18177;DHT22;9213;50.858;3.964;2023-06-22T04:29:28;22.70;51.40
18177;DHT22;9213;50.858;3.964;2023-06-22T04:31:56;22.70;50.90
18177;DHT22;9213;50.858;3.964;2023-06-22T04:34:24;22.70;50.70
18177;DHT22;9213;50.858;3.964;2023-06-22T04:36:53;22.80;50.50
18177;DHT22;9213;50.858;3.964;2023-06-22T04:39:20;22.90;50.40
18177;DHT22;9213;50.858;3.964;2023-06-22T04:41:47;22.90;50.00
18177;DHT22;9213;50.858;3.964;2023-06-22T04:44:15;23.00;49.80
18177;DHT22;9213;50.858;3.964;2023-06-22T04:46:49;23.00;49.60
18177;DHT22;9213;50.858;3.964;2023-06-22T04:49:20;23.10;49.40
18177;DHT22;9213;50.858;3.964;2023-06-22T04:51:47;23.20;49.30
18177;DHT22;9213;50.858;3.964;2023-06-22T04:54:16;23.30;49.10
18177;DHT22;9213;50.858;3.964;2023-06-22T04:56:43;23.40;48.80
18177;DHT22;9213;50.858;3.964;2023-06-22T04:59:12;23.50;48.70
18177;DHT22;9213;50.858;3.964;2023-06-22T05:01:39;23.60;48.30
18177;DHT22;9213;50.858;3.964;2023-06-22T05:04:06;23.70;48.00
18177;DHT22;9213;50.858;3.964;2023-06-22T05:06:33;23.70;48.10
18177;DHT22;9213;50.858;3.964;2023-06-22T05:09:00;23.80;47.90
18177;DHT22;9213;50.858;3.964;2023-06-22T05:11:30;23.80;47.80
18177;DHT22;9213;50.858;3.964;2023-06-22T05:13:56;23.90;47.70
18177;DHT22;9213;50.858;3.964;2023-06-22T05:16:24;23.90;47.70
18177;DHT22;9213;50.858;3.964;2023-06-22T05:18:52;24.00;47.50
18177;DHT22;9213;50.858;3.964;2023-06-22T05:21:22;24.00;47.30
18177;DHT22;9213;50.858;3.964;2023-06-22T05:23:49;24.00;47.10
18177;DHT22;9213;50.858;3.964;2023-06-22T05:26:17;24.00;47.10
18177;DHT22;9213;50.858;3.964;2023-06-22T05:28:45;24.00;47.30
18177;DHT22;9213;50.858;3.964;2023-06-22T05:31:13;24.10;47.50
18177;DHT22;9213;50.858;3.964;2023-06-22T05:33:40;24.10;47.20
18177;DHT22;9213;50.858;3.964;2023-06-22T05:36:07;24.20;47.00
18177;DHT22;9213;50.858;3.964;2023-06-22T05:38:34;24.20;47.20
18177;DHT22;9213;50.858;3.964;2023-06-22T05:41:01;24.30;47.00
18177;DHT22;9213;50.858;3.964;2023-06-22T05:43:28;24.30;47.00
18177;DHT22;9213;50.858;3.964;2023-06-22T05:45:57;24.30;47.10
18177;DHT22;9213;50.858;3.964;2023-06-22T05:48:24;24.40;47.00
18177;DHT22;9213;50.858;3.964;2023-06-22T05:50:51;24.40;46.60
18177;DHT22;9213;50.858;3.964;2023-06-22T05:53:18;24.50;46.40
18177;DHT22;9213;50.858;3.964;2023-06-22T05:55:45;24.50;46.20
18177;DHT22;9213;50.858;3.964;2023-06-22T05:58:12;24.60;46.10
18177;DHT22;9213;50.858;3.964;2023-06-22T06:00:39;24.70;46.20
18177;DHT22;9213;50.858;3.964;2023-06-22T06:03:07;24.70;45.90
18177;DHT22;9213;50.858;3.964;2023-06-22T06:05:35;24.80;46.20
18177;DHT22;9213;50.858;3.964;2023-06-22T06:08:02;24.80;45.70
18177;DHT22;9213;50.858;3.964;2023-06-22T06:10:31;24.90;46.00
18177;DHT22;9213;50.858;3.964;2023-06-22T06:12:58;24.90;45.90
18177;DHT22;9213;50.858;3.964;2023-06-22T06:15:27;24.90;46.10
18177;DHT22;9213;50.858;3.964;2023-06-22T06:17:54;25.00;46.00
18177;DHT22;9213;50.858;3.964;2023-06-22T06:20:23;25.00;45.70
18177;DHT22;9213;50.858;3.964;2023-06-22T06:22:51;25.00;45.90
18177;DHT22;9213;50.858;3.964;2023-06-22T06:25:18;25.00;45.80
18177;DHT22;9213;50.858;3.964;2023-06-22T06:27:48;25.00;45.90
18177;DHT22;9213;50.858;3.964;2023-06-22T06:30:16;25.10;45.70
18177;DHT22;9213;50.858;3.964;2023-06-22T06:32:44;25.20;46.40
18177;DHT22;9213;50.858;3.964;2023-06-22T06:35:13;25.30;45.60
18177;DHT22;9213;50.858;3.964;2023-06-22T06:37:43;25.40;45.60
18177;DHT22;9213;50.858;3.964;2023-06-22T06:40:11;25.50;45.30
18177;DHT22;9213;50.858;3.964;2023-06-22T06:42:39;25.60;45.10
18177;DHT22;9213;50.858;3.964;2023-06-22T06:45:08;25.60;44.80
18177;DHT22;9213;50.858;3.964;2023-06-22T06:47:35;25.60;44.80
18177;DHT22;9213;50.858;3.964;2023-06-22T06:50:02;25.60;44.60
18177;DHT22;9213;50.858;3.964;2023-06-22T06:52:29;25.60;44.60
18177;DHT22;9213;50.858;3.964;2023-06-22T06:54:58;25.50;45.00
18177;DHT22;9213;50.858;3.964;2023-06-22T06:57:25;25.50;45.30
18177;DHT22;9213;50.858;3.964;2023-06-22T06:59:54;25.40;45.80
18177;DHT22;9213;50.858;3.964;2023-06-22T07:02:22;25.40;46.20
18177;DHT22;9213;50.858;3.964;2023-06-22T07:04:49;25.30;46.70
18177;DHT22;9213;50.858;3.964;2023-06-22T07:07:16;25.30;46.20
18177;DHT22;9213;50.858;3.964;2023-06-22T07:09:43;25.30;46.50
18177;DHT22;9213;50.858;3.964;2023-06-22T07:12:11;25.30;46.60
18177;DHT22;9213;50.858;3.964;2023-06-22T07:14:38;25.30;46.50
18177;DHT22;9213;50.858;3.964;2023-06-22T07:17:05;25.30;46.70
18177;DHT22;9213;50.858;3.964;2023-06-22T07:19:32;25.20;47.00
18177;DHT22;9213;50.858;3.964;2023-06-22T07:21:59;25.20;47.10
18177;DHT22;9213;50.858;3.964;2023-06-22T07:24:26;25.20;47.30
18177;DHT22;9213;50.858;3.964;2023-06-22T07:26:53;25.20;47.30
18177;DHT22;9213;50.858;3.964;2023-06-22T07:29:26;25.20;47.60
18177;DHT22;9213;50.858;3.964;2023-06-22T07:31:53;25.20;47.70
18177;DHT22;9213;50.858;3.964;2023-06-22T07:34:22;25.10;48.00
18177;DHT22;9213;50.858;3.964;2023-06-22T07:36:49;25.20;48.00
18177;DHT22;9213;50.858;3.964;2023-06-22T07:39:16;25.20;47.90
18177;DHT22;9213;50.858;3.964;2023-06-22T07:41:42;25.20;47.70
18177;DHT22;9213;50.858;3.964;2023-06-22T07:44:09;25.20;47.50
18177;DHT22;9213;50.858;3.964;2023-06-22T07:46:38;25.30;47.30
18177;DHT22;9213;50.858;3.964;2023-06-22T07:49:04;25.30;47.20
18177;DHT22;9213;50.858;3.964;2023-06-22T07:51:33;25.30;47.20
18177;DHT22;9213;50.858;3.964;2023-06-22T07:54:00;25.30;47.20
18177;DHT22;9213;50.858;3.964;2023-06-22T07:56:27;25.40;47.10
18177;DHT22;9213;50.858;3.964;2023-06-22T07:58:54;25.40;47.00
18177;DHT22;9213;50.858;3.964;2023-06-22T08:01:23;25.50;47.10
18177;DHT22;9213;50.858;3.964;2023-06-22T08:03:52;25.60;47.00
18177;DHT22;9213;50.858;3.964;2023-06-22T08:06:19;25.60;46.70
18177;DHT22;9213;50.858;3.964;2023-06-22T08:08:46;25.70;46.70
18177;DHT22;9213;50.858;3.964;2023-06-22T08:11:14;25.80;46.40
18177;DHT22;9213;50.858;3.964;2023-06-22T08:13:42;25.80;46.50
18177;DHT22;9213;50.858;3.964;2023-06-22T08:16:08;25.80;46.20
18177;DHT22;9213;50.858;3.964;2023-06-22T08:18:36;25.80;46.20
18177;DHT22;9213;50.858;3.964;2023-06-22T08:21:05;25.90;46.80
18177;DHT22;9213;50.858;3.964;2023-06-22T08:23:32;25.80;46.20
18177;DHT22;9213;50.858;3.964;2023-06-22T08:25:59;25.80;46.30
18177;DHT22;9213;50.858;3.964;2023-06-22T08:28:25;25.80;46.50
18177;DHT22;9213;50.858;3.964;2023-06-22T08:30:52;25.70;46.90
18177;DHT22;9213;50.858;3.964;2023-06-22T08:33:21;25.60;47.10
18177;DHT22;9213;50.858;3.964;2023-06-22T08:35:54;25.60;46.80
18177;DHT22;9213;50.858;3.964;2023-06-22T08:38:22;25.50;47.00
18177;DHT22;9213;50.858;3.964;2023-06-22T08:40:49;25.50;47.60
18177;DHT22;9213;50.858;3.964;2023-06-22T08:43:16;25.50;47.90
18177;DHT22;9213;50.858;3.964;2023-06-22T08:45:42;25.50;48.20
18177;DHT22;9213;50.858;3.964;2023-06-22T08:48:09;25.50;48.30
18177;DHT22;9213;50.858;3.964;2023-06-22T08:50:36;25.40;48.70
18177;DHT22;9213;50.858;3.964;2023-06-22T08:53:04;25.50;48.40
18177;DHT22;9213;50.858;3.964;2023-06-22T08:55:33;25.40;48.60
18177;DHT22;9213;50.858;3.964;2023-06-22T08:58:00;25.50;48.70
18177;DHT22;9213;50.858;3.964;2023-06-22T09:00:27;25.40;48.70
18177;DHT22;9213;50.858;3.964;2023-06-22T09:02:58;25.40;48.90
18177;DHT22;9213;50.858;3.964;2023-06-22T09:05:25;25.40;49.20
18177;DHT22;9213;50.858;3.964;2023-06-22T09:07:52;25.30;49.60
18177;DHT22;9213;50.858;3.964;2023-06-22T09:10:20;25.10;50.60
18177;DHT22;9213;50.858;3.964;2023-06-22T09:12:48;25.00;51.20
18177;DHT22;9213;50.858;3.964;2023-06-22T09:15:15;24.90;52.10
18177;DHT22;9213;50.858;3.964;2023-06-22T09:17:43;24.80;52.60
18177;DHT22;9213;50.858;3.964;2023-06-22T09:20:12;24.70;52.80
18177;DHT22;9213;50.858;3.964;2023-06-22T09:22:39;24.60;53.20
18177;DHT22;9213;50.858;3.964;2023-06-22T09:25:06;24.60;53.50
18177;DHT22;9213;50.858;3.964;2023-06-22T09:27:33;24.50;53.90
18177;DHT22;9213;50.858;3.964;2023-06-22T09:30:02;24.50;54.20
18177;DHT22;9213;50.858;3.964;2023-06-22T09:32:29;24.50;54.40
18177;DHT22;9213;50.858;3.964;2023-06-22T09:34:56;24.50;54.30
18177;DHT22;9213;50.858;3.964;2023-06-22T09:37:23;24.40;54.50
18177;DHT22;9213;50.858;3.964;2023-06-22T09:39:50;24.40;54.80
18177;DHT22;9213;50.858;3.964;2023-06-22T09:42:17;24.40;56.00
18177;DHT22;9213;50.858;3.964;2023-06-22T09:44:43;24.30;55.40
18177;DHT22;9213;50.858;3.964;2023-06-22T09:47:12;24.30;55.70
18177;DHT22;9213;50.858;3.964;2023-06-22T09:49:39;24.20;56.00
18177;DHT22;9213;50.858;3.964;2023-06-22T09:52:06;24.20;56.40
18177;DHT22;9213;50.858;3.964;2023-06-22T09:54:33;24.10;56.70
18177;DHT22;9213;50.858;3.964;2023-06-22T09:57:00;24.00;56.90
18177;DHT22;9213;50.858;3.964;2023-06-22T09:59:27;24.00;57.70
18177;DHT22;9213;50.858;3.964;2023-06-22T10:01:54;24.00;58.50
18177;DHT22;9213;50.858;3.964;2023-06-22T10:04:22;24.00;58.60
18177;DHT22;9213;50.858;3.964;2023-06-22T10:06:50;24.00;59.00
18177;DHT22;9213;50.858;3.964;2023-06-22T10:09:17;24.00;59.70
18177;DHT22;9213;50.858;3.964;2023-06-22T10:11:44;24.00;59.80
18177;DHT22;9213;50.858;3.964;2023-06-22T10:14:11;24.00;59.80
18177;DHT22;9213;50.858;3.964;2023-06-22T10:16:37;24.00;60.20
18177;DHT22;9213;50.858;3.964;2023-06-22T10:19:06;24.00;60.80
18177;DHT22;9213;50.858;3.964;2023-06-22T10:21:34;24.00;60.80
18177;DHT22;9213;50.858;3.964;2023-06-22T10:24:02;24.10;61.00
18177;DHT22;9213;50.858;3.964;2023-06-22T10:26:31;24.10;60.90
18177;DHT22;9213;50.858;3.964;2023-06-22T10:28:58;24.00;61.00
18177;DHT22;9213;50.858;3.964;2023-06-22T10:31:25;24.00;60.90
18177;DHT22;9213;50.858;3.964;2023-06-22T10:33:53;24.00;61.50
18177;DHT22;9213;50.858;3.964;2023-06-22T10:36:21;23.90;61.90
18177;DHT22;9213;50.858;3.964;2023-06-22T10:38:49;23.90;61.50
18177;DHT22;9213;50.858;3.964;2023-06-22T10:41:18;23.80;61.80
18177;DHT22;9213;50.858;3.964;2023-06-22T10:43:45;23.80;60.90
18177;DHT22;9213;50.858;3.964;2023-06-22T10:46:12;23.70;60.90
18177;DHT22;9213;50.858;3.964;2023-06-22T10:48:39;23.70;60.70
18177;DHT22;9213;50.858;3.964;2023-06-22T10:51:06;23.50;60.40
18177;DHT22;9213;50.858;3.964;2023-06-22T10:53:33;23.30;60.70
18177;DHT22;9213;50.858;3.964;2023-06-22T10:56:01;23.30;61.00
18177;DHT22;9213;50.858;3.964;2023-06-22T10:58:28;23.30;61.30
18177;DHT22;9213;50.858;3.964;2023-06-22T11:00:55;23.20;60.60
18177;DHT22;9213;50.858;3.964;2023-06-22T11:03:22;23.00;61.20
18177;DHT22;9213;50.858;3.964;2023-06-22T11:05:49;23.00;61.70
18177;DHT22;9213;50.858;3.964;2023-06-22T11:08:15;22.90;62.00
18177;DHT22;9213;50.858;3.964;2023-06-22T11:10:43;22.90;61.80
18177;DHT22;9213;50.858;3.964;2023-06-22T11:13:11;22.90;62.40
18177;DHT22;9213;50.858;3.964;2023-06-22T11:15:39;22.90;62.70
18177;DHT22;9213;50.858;3.964;2023-06-22T11:18:06;22.90;62.70
18177;DHT22;9213;50.858;3.964;2023-06-22T11:20:33;22.90;62.70
18177;DHT22;9213;50.858;3.964;2023-06-22T11:23:04;23.00;62.70
18177;DHT22;9213;50.858;3.964;2023-06-22T11:25:31;23.00;62.20
18177;DHT22;9213;50.858;3.964;2023-06-22T11:27:58;23.00;61.90
18177;DHT22;9213;50.858;3.964;2023-06-22T11:30:26;23.00;61.60
18177;DHT22;9213;50.858;3.964;2023-06-22T11:32:53;23.00;61.70
18177;DHT22;9213;50.858;3.964;2023-06-22T11:35:20;23.00;61.40
18177;DHT22;9213;50.858;3.964;2023-06-22T11:37:47;23.00;61.40
18177;DHT22;9213;50.858;3.964;2023-06-22T11:40:14;22.90;61.60
18177;DHT22;9213;50.858;3.964;2023-06-22T11:42:41;22.90;61.60
18177;DHT22;9213;50.858;3.964;2023-06-22T11:45:08;22.90;62.10
18177;DHT22;9213;50.858;3.964;2023-06-22T11:47:36;22.90;62.20
18177;DHT22;9213;50.858;3.964;2023-06-22T11:50:06;22.90;62.30
18177;DHT22;9213;50.858;3.964;2023-06-22T11:52:33;22.90;62.20
18177;DHT22;9213;50.858;3.964;2023-06-22T11:55:01;22.90;62.30
18177;DHT22;9213;50.858;3.964;2023-06-22T11:57:32;22.80;62.30
18177;DHT22;9213;50.858;3.964;2023-06-22T11:59:59;22.80;62.50
18177;DHT22;9213;50.858;3.964;2023-06-22T12:02:26;22.80;62.40
18177;DHT22;9213;50.858;3.964;2023-06-22T12:04:54;22.70;62.10
18177;DHT22;9213;50.858;3.964;2023-06-22T12:07:23;22.70;61.90
18177;DHT22;9213;50.858;3.964;2023-06-22T12:09:50;22.70;61.90
18177;DHT22;9213;50.858;3.964;2023-06-22T12:12:17;22.60;61.80
18177;DHT22;9213;50.858;3.964;2023-06-22T12:14:44;22.60;61.90
18177;DHT22;9213;50.858;3.964;2023-06-22T12:17:12;22.60;61.90
18177;DHT22;9213;50.858;3.964;2023-06-22T12:19:39;22.60;62.00
18177;DHT22;9213;50.858;3.964;2023-06-22T12:22:07;22.50;61.90
18177;DHT22;9213;50.858;3.964;2023-06-22T12:24:34;22.50;62.00
18177;DHT22;9213;50.858;3.964;2023-06-22T12:27:01;22.40;62.20
18177;DHT22;9213;50.858;3.964;2023-06-22T12:29:29;22.40;62.20
18177;DHT22;9213;50.858;3.964;2023-06-22T12:31:55;22.40;62.60
18177;DHT22;9213;50.858;3.964;2023-06-22T12:34:22;22.40;62.70
18177;DHT22;9213;50.858;3.964;2023-06-22T12:36:49;22.40;63.00
18177;DHT22;9213;50.858;3.964;2023-06-22T12:39:17;22.40;62.80
18177;DHT22;9213;50.858;3.964;2023-06-22T12:41:44;22.40;62.80
18177;DHT22;9213;50.858;3.964;2023-06-22T12:44:11;22.40;63.00
18177;DHT22;9213;50.858;3.964;2023-06-22T12:46:38;22.40;63.00
18177;DHT22;9213;50.858;3.964;2023-06-22T12:49:05;22.40;63.20
18177;DHT22;9213;50.858;3.964;2023-06-22T12:51:32;22.40;63.40
18177;DHT22;9213;50.858;3.964;2023-06-22T12:53:59;22.40;63.20
18177;DHT22;9213;50.858;3.964;2023-06-22T12:56:27;22.30;63.10
18177;DHT22;9213;50.858;3.964;2023-06-22T12:58:54;22.30;63.20
18177;DHT22;9213;50.858;3.964;2023-06-22T13:01:21;22.20;62.80
18177;DHT22;9213;50.858;3.964;2023-06-22T13:03:48;22.20;63.00
18177;DHT22;9213;50.858;3.964;2023-06-22T13:06:15;22.10;63.20
18177;DHT22;9213;50.858;3.964;2023-06-22T13:08:42;22.00;63.30
18177;DHT22;9213;50.858;3.964;2023-06-22T13:11:09;22.00;63.90
18177;DHT22;9213;50.858;3.964;2023-06-22T13:13:38;21.90;63.40
18177;DHT22;9213;50.858;3.964;2023-06-22T13:16:05;21.90;63.60
18177;DHT22;9213;50.858;3.964;2023-06-22T13:18:32;21.90;63.60
18177;DHT22;9213;50.858;3.964;2023-06-22T13:21:00;21.80;63.60
18177;DHT22;9213;50.858;3.964;2023-06-22T13:23:26;21.80;63.60
18177;DHT22;9213;50.858;3.964;2023-06-22T13:25:53;21.80;63.80
18177;DHT22;9213;50.858;3.964;2023-06-22T13:28:20;21.80;63.80
18177;DHT22;9213;50.858;3.964;2023-06-22T13:30:49;21.80;63.60
18177;DHT22;9213;50.858;3.964;2023-06-22T13:33:16;21.80;63.90
18177;DHT22;9213;50.858;3.964;2023-06-22T13:35:43;21.70;64.10
18177;DHT22;9213;50.858;3.964;2023-06-22T13:38:11;21.70;64.20
18177;DHT22;9213;50.858;3.964;2023-06-22T13:40:38;21.70;64.30
18177;DHT22;9213;50.858;3.964;2023-06-22T13:43:05;21.70;64.70
18177;DHT22;9213;50.858;3.964;2023-06-22T13:45:32;21.70;64.80
18177;DHT22;9213;50.858;3.964;2023-06-22T13:48:00;21.80;64.70
18177;DHT22;9213;50.858;3.964;2023-06-22T13:50:27;21.80;64.50
18177;DHT22;9213;50.858;3.964;2023-06-22T13:52:55;21.80;64.40
18177;DHT22;9213;50.858;3.964;2023-06-22T13:55:22;21.80;64.70
18177;DHT22;9213;50.858;3.964;2023-06-22T13:57:49;21.80;64.80
18177;DHT22;9213;50.858;3.964;2023-06-22T14:00:18;21.80;64.90
18177;DHT22;9213;50.858;3.964;2023-06-22T14:02:45;21.80;64.70
18177;DHT22;9213;50.858;3.964;2023-06-22T14:05:13;21.90;64.80
18177;DHT22;9213;50.858;3.964;2023-06-22T14:07:40;21.90;64.80
18177;DHT22;9213;50.858;3.964;2023-06-22T14:10:07;21.90;64.80
18177;DHT22;9213;50.858;3.964;2023-06-22T14:12:34;22.00;64.80
18177;DHT22;9213;50.858;3.964;2023-06-22T14:15:01;22.00;64.90
18177;DHT22;9213;50.858;3.964;2023-06-22T14:17:28;22.00;64.90
18177;DHT22;9213;50.858;3.964;2023-06-22T14:19:55;22.10;64.80
18177;DHT22;9213;50.858;3.964;2023-06-22T14:22:23;22.10;64.50
18177;DHT22;9213;50.858;3.964;2023-06-22T14:24:51;22.20;64.60
18177;DHT22;9213;50.858;3.964;2023-06-22T14:27:18;22.20;64.70
18177;DHT22;9213;50.858;3.964;2023-06-22T14:29:45;22.20;64.40
18177;DHT22;9213;50.858;3.964;2023-06-22T14:32:12;22.20;64.40
18177;DHT22;9213;50.858;3.964;2023-06-22T14:34:38;22.20;64.20
18177;DHT22;9213;50.858;3.964;2023-06-22T14:37:06;22.20;64.20
18177;DHT22;9213;50.858;3.964;2023-06-22T14:39:36;22.20;64.20
18177;DHT22;9213;50.858;3.964;2023-06-22T14:42:03;22.20;64.40
18177;DHT22;9213;50.858;3.964;2023-06-22T14:44:30;22.20;64.30
18177;DHT22;9213;50.858;3.964;2023-06-22T14:46:57;22.20;64.60
18177;DHT22;9213;50.858;3.964;2023-06-22T14:49:24;22.30;64.50
18177;DHT22;9213;50.858;3.964;2023-06-22T14:51:51;22.30;64.40
18177;DHT22;9213;50.858;3.964;2023-06-22T14:54:18;22.30;64.40
18177;DHT22;9213;50.858;3.964;2023-06-22T14:56:47;22.40;64.40
18177;DHT22;9213;50.858;3.964;2023-06-22T14:59:14;22.40;64.40
18177;DHT22;9213;50.858;3.964;2023-06-22T15:01:41;22.40;64.20
18177;DHT22;9213;50.858;3.964;2023-06-22T15:04:08;22.50;64.30
18177;DHT22;9213;50.858;3.964;2023-06-22T15:06:35;22.50;64.20
18177;DHT22;9213;50.858;3.964;2023-06-22T15:09:02;22.60;64.00
18177;DHT22;9213;50.858;3.964;2023-06-22T15:11:29;22.60;64.10
18177;DHT22;9213;50.858;3.964;2023-06-22T15:13:58;22.60;64.20
18177;DHT22;9213;50.858;3.964;2023-06-22T15:16:26;22.60;64.00
18177;DHT22;9213;50.858;3.964;2023-06-22T15:18:53;22.70;64.10
18177;DHT22;9213;50.858;3.964;2023-06-22T15:21:20;22.70;64.30
18177;DHT22;9213;50.858;3.964;2023-06-22T15:23:47;22.80;64.40
18177;DHT22;9213;50.858;3.964;2023-06-22T15:26:14;22.80;63.90
18177;DHT22;9213;50.858;3.964;2023-06-22T15:28:41;22.90;64.10
18177;DHT22;9213;50.858;3.964;2023-06-22T15:31:10;22.90;64.00
18177;DHT22;9213;50.858;3.964;2023-06-22T15:33:36;23.00;63.90
18177;DHT22;9213;50.858;3.964;2023-06-22T15:36:04;23.00;63.70
18177;DHT22;9213;50.858;3.964;2023-06-22T15:38:32;23.10;63.40
18177;DHT22;9213;50.858;3.964;2023-06-22T15:40:59;23.10;63.00
18177;DHT22;9213;50.858;3.964;2023-06-22T15:43:26;23.20;63.00
18177;DHT22;9213;50.858;3.964;2023-06-22T15:45:53;23.30;63.00
18177;DHT22;9213;50.858;3.964;2023-06-22T15:48:22;23.40;62.80